Time;durP1;ratioP1;P1;durP2;ratioP2;P2;SDS_P1;SDS_P2;PMS_P1;PMS_P2;Temp;Humidity;BMP_temperature;BMP_pressure;BME280_temperature;BME280_humidity;BME280_pressure;Samples;Min_cycle;Max_cycle;Signal;HPM_P1;HPM_P2
2022/06/04 00:00:11;;;;;;;19.98;17.95;;;;;;;25.45;68.37;101294.25;4972139;28;20055;-75
2022/06/04 00:02:40;;;;;;;21.80;19.50;;;;;;;25.44;68.23;101300.66;4961933;28;20156;-74
2022/06/04 00:05:11;;;;;;;20.92;18.98;;;;;;;25.44;68.27;101293.38;4992471;28;20069;-74
2022/06/04 00:07:39;;;;;;;18.85;16.92;;;;;;;25.45;68.08;101299.66;4992405;28;20414;-74
2022/06/04 00:15:48;;;;;;;19.42;17.60;;;;;;;25.45;68.26;101305.09;4976652;28;20055;-74
2022/06/04 00:18:16;;;;;;;20.40;18.38;;;;;;;25.44;68.26;101296.06;4992191;28;20412;-74
2022/06/04 00:20:44;;;;;;;18.55;16.75;;;;;;;25.44;68.28;101292.50;4992253;28;20063;-74
2022/06/04 00:23:12;;;;;;;20.27;18.38;;;;;;;25.44;68.20;101287.94;5021619;28;20383;-74
2022/06/04 00:25:43;;;;;;;19.85;17.92;;;;;;;25.43;68.11;101286.25;5116048;28;20483;-74
2022/06/04 00:28:11;;;;;;;18.88;17.02;;;;;;;25.44;68.20;101285.22;5115830;28;20054;-74
2022/06/04 00:30:38;;;;;;;20.23;18.17;;;;;;;25.43;68.16;101288.97;5115821;28;20371;-75
2022/06/04 00:33:09;;;;;;;18.45;16.75;;;;;;;25.44;68.23;101287.09;5115532;28;20047;-74
2022/06/04 00:35:37;;;;;;;20.40;18.40;;;;;;;25.44;67.98;101281.66;5116052;28;20047;-75
2022/06/04 00:38:06;;;;;;;21.83;19.63;;;;;;;25.44;68.08;101279.81;5065909;28;20100;-75
2022/06/04 00:40:41;;;;;;;21.25;19.13;;;;;;;25.44;68.08;101273.53;5011818;28;20392;-75
2022/06/04 00:43:09;;;;;;;21.05;19.15;;;;;;;25.44;67.98;101271.69;5011881;28;20072;-75
2022/06/04 00:45:36;;;;;;;22.45;20.20;;;;;;;25.44;68.06;101277.09;5011996;28;20504;-74
2022/06/04 00:48:07;;;;;;;23.38;21.17;;;;;;;25.43;68.02;101267.28;5011966;28;20045;-75
2022/06/04 00:50:37;;;;;;;22.40;20.30;;;;;;;25.43;67.98;101266.44;5012060;28;20401;-74
2022/06/04 00:53:08;;;;;;;20.85;18.95;;;;;;;25.43;68.10;101264.56;5011901;28;20046;-75
2022/06/04 00:55:47;;;;;;;22.13;20.02;;;;;;;25.43;68.00;101258.28;5012497;28;20374;-74
2022/06/04 00:58:21;;;;;;;22.38;20.38;;;;;;;25.42;67.86;101262.88;5010243;28;20049;-74
2022/06/04 01:01:04;;;;;;;22.00;19.88;;;;;;;25.43;67.87;101261.84;5011482;28;20046;-74
2022/06/04 01:03:31;;;;;;;;;;;;;;;25.43;67.76;101259.16;5001830;28;20058;-74
2022/06/04 01:06:21;;;;;;;21.60;19.45;;;;;;;25.42;67.87;101265.59;4991759;28;19921;-74
2022/06/04 01:09:16;;;;;;;22.92;20.73;;;;;;;25.42;67.78;101262.88;5010099;28;20065;-74
2022/06/04 01:12:10;;;;;;;23.02;20.73;;;;;;;25.43;67.72;101256.44;4991971;28;20046;-75
2022/06/04 01:14:49;;;;;;;21.27;19.30;;;;;;;25.42;67.75;101246.59;4992392;28;20042;-74
2022/06/04 01:17:37;;;;;;;24.97;21.57;;;;;;;25.42;67.71;101241.19;4991824;28;20401;-74
2022/06/04 01:20:36;;;;;;;21.13;19.20;;;;;;;25.43;67.86;101242.03;4992090;28;20045;-74
2022/06/04 01:23:32;;;;;;;21.15;19.13;;;;;;;25.42;67.82;101243.06;4991542;28;20073;-74
2022/06/04 01:26:39;;;;;;;22.48;20.13;;;;;;;25.41;67.74;101239.50;4992152;28;20052;-74
2022/06/04 01:29:16;;;;;;;22.17;19.40;;;;;;;25.40;67.62;101225.09;5022691;28;20054;-74
2022/06/04 01:31:49;;;;;;;21.33;19.38;;;;;;;25.41;67.87;101228.66;4990259;28;20042;-74
2022/06/04 01:34:22;;;;;;;20.77;18.83;;;;;;;25.41;67.62;101234.06;4992855;28;20057;-74
2022/06/04 01:37:01;;;;;;;19.75;17.83;;;;;;;25.40;67.67;101235.06;4990787;28;20055;-74
2022/06/04 01:41:03;;;;;;;21.02;19.15;;;;;;;25.42;67.71;101229.50;4998757;28;20487;-74
2022/06/04 01:42:26;;;;;;;22.05;19.75;;;;;;;25.40;67.55;101230.53;5010900;28;20068;-74
2022/06/04 01:44:57;;;;;;;21.10;18.95;;;;;;;25.40;67.67;101235.94;5011882;28;20053;-74
2022/06/04 01:47:28;;;;;;;20.63;18.60;;;;;;;25.40;67.69;101235.94;5072329;28;20043;-74
2022/06/04 01:49:57;;;;;;;20.27;18.40;;;;;;;25.42;67.62;101240.34;5114413;28;20106;-74
2022/06/04 01:52:33;;;;;;;21.05;18.92;;;;;;;25.41;67.54;101242.22;5113952;28;20043;-74
2022/06/04 01:55:22;;;;;;;21.40;19.40;;;;;;;25.40;67.58;101241.38;5113780;28;20047;-74
2022/06/04 01:58:00;;;;;;;19.30;17.48;;;;;;;25.41;67.51;101242.22;5113950;28;20039;-74
2022/06/04 02:00:48;;;;;;;23.67;19.75;;;;;;;25.40;67.47;101248.63;5114208;28;20047;-74
2022/06/04 02:03:22;;;;;;;20.65;18.75;;;;;;;25.40;67.35;101267.59;5070493;28;20052;-74
2022/06/04 02:05:55;;;;;;;20.75;18.83;;;;;;;25.41;67.32;101274.72;5011251;28;20053;-74
2022/06/04 02:08:37;;;;;;;21.10;18.92;;;;;;;25.41;67.42;101277.44;5011589;28;20042;-74
2022/06/04 02:11:12;;;;;;;20.52;18.65;;;;;;;25.39;67.26;101269.47;5010574;28;20057;-74
2022/06/04 02:13:41;;;;;;;20.17;18.33;;;;;;;25.40;67.24;101254.03;5010582;28;20050;-74
2022/06/04 02:16:20;;;;;;;19.30;17.48;;;;;;;25.40;67.49;101240.47;5011032;28;20046;-74
2022/06/04 02:18:49;;;;;;;18.88;17.08;;;;;;;25.40;67.42;101241.38;5009920;28;20045;-74
2022/06/04 02:21:18;;;;;;;21.65;19.73;;;;;;;25.38;67.27;101221.69;5010328;28;20046;-74
2022/06/04 02:23:47;;;;;;;20.38;18.30;;;;;;;25.39;67.33;101225.25;5026337;28;20046;-74
2022/06/04 02:26:16;;;;;;;20.02;18.02;;;;;;;25.40;67.38;101224.22;5113321;28;20490;-74
2022/06/04 02:28:46;;;;;;;21.23;19.33;;;;;;;25.40;67.34;101232.34;5113454;28;20035;-74
2022/06/04 02:31:44;;;;;;;19.35;17.33;;;;;;;25.39;67.26;101234.22;5113475;28;20043;-74
2022/06/04 02:34:23;;;;;;;20.13;18.25;;;;;;;25.39;67.56;101236.94;5113648;28;20051;-74
2022/06/04 02:37:23;;;;;;;21.92;19.80;;;;;;;25.39;67.46;101242.34;5113136;28;20043;-74
2022/06/04 02:40:09;;;;;;;20.17;18.30;;;;;;;25.40;67.38;101235.94;5029790;28;20049;-74
2022/06/04 02:42:42;;;;;;;19.05;17.08;;;;;;;25.38;67.46;101235.25;5030201;28;20054;-73
2022/06/04 02:45:24;;;;;;;21.50;19.38;;;;;;;25.39;67.54;101231.50;5030902;28;20057;-74
2022/06/04 02:48:09;;;;;;;20.83;18.83;;;;;;;25.40;67.49;101232.34;5030381;28;20053;-74
2022/06/04 02:51:02;;;;;;;19.95;17.98;;;;;;;25.39;67.35;101231.50;5030756;28;20104;-74
2022/06/04 02:53:31;;;;;;;19.92;17.95;;;;;;;25.39;67.38;101231.50;5031113;28;20049;-74
2022/06/04 02:56:10;;;;;;;20.63;18.63;;;;;;;25.39;67.38;101236.09;5013881;28;20054;-74
2022/06/04 02:58:41;;;;;;;19.20;17.25;;;;;;;25.39;67.35;101233.38;5030904;28;20053;-74
2022/06/04 03:01:11;;;;;;;20.60;18.42;;;;;;;25.39;67.30;101241.50;5030949;28;20053;-74
2022/06/04 03:03:40;;;;;;;19.55;17.60;;;;;;;25.39;67.23;101236.09;5030400;28;20057;-74
2022/06/04 03:06:19;;;;;;;18.73;16.92;;;;;;;25.38;67.37;101240.66;5030459;28;20053;-74
2022/06/04 03:08:47;;;;;;;19.85;17.92;;;;;;;25.38;67.27;101246.09;5014121;28;20141;-74
2022/06/04 03:11:14;;;;;;;19.33;17.48;;;;;;;25.39;67.22;101244.22;5030106;28;20050;-74
2022/06/04 03:13:42;;;;;;;19.05;17.02;;;;;;;25.39;67.22;101244.22;5030561;28;20097;-74
2022/06/04 03:16:10;;;;;;;23.55;21.13;;;;;;;25.39;67.53;101249.63;5000979;28;20406;-74
2022/06/04 03:18:38;;;;;;;21.90;19.63;;;;;;;25.39;67.66;101255.91;4990343;28;20047;-74
2022/06/04 03:21:05;;;;;;;21.90;19.20;;;;;;;25.40;67.55;101246.78;4990428;28;20050;-74
2022/06/04 03:23:32;;;;;;;21.15;19.05;;;;;;;25.40;67.55;101248.63;4989769;28;20054;-74
2022/06/04 03:26:00;;;;;;;22.38;20.13;;;;;;;25.39;67.26;101253.19;4989970;28;20038;-74
2022/06/04 03:28:28;;;;;;;20.45;18.42;;;;;;;25.40;67.30;101251.31;4989926;28;20141;-74
2022/06/04 03:30:55;;;;;;;20.42;18.20;;;;;;;25.38;67.19;101251.50;4990508;28;20050;-74
2022/06/04 03:33:23;;;;;;;21.05;18.88;;;;;;;25.40;67.24;101246.78;4993604;28;20042;-74
2022/06/04 03:35:50;;;;;;;20.02;17.65;;;;;;;25.40;67.32;101240.47;4991649;28;20062;-73
2022/06/04 03:38:18;;;;;;;19.20;17.40;;;;;;;25.39;67.08;101241.50;4994102;28;20485;-74
2022/06/04 03:40:45;;;;;;;21.08;18.23;;;;;;;25.39;67.22;101238.78;4999537;28;20038;-74
2022/06/04 03:43:12;;;;;;;20.33;18.33;;;;;;;25.39;67.11;101245.06;5010834;28;20066;-74
2022/06/04 03:45:40;;;;;;;19.25;17.25;;;;;;;25.39;67.38;101233.38;5012638;28;20045;-74
2022/06/04 03:48:08;;;;;;;19.33;17.45;;;;;;;25.38;67.25;101232.53;5072388;28;20047;-74
2022/06/04 03:50:35;;;;;;;20.95;18.73;;;;;;;25.39;67.23;101225.25;5116298;28;20043;-74
2022/06/04 03:53:02;;;;;;;22.35;20.00;;;;;;;25.38;66.97;101224.41;5115214;28;20168;-74
2022/06/04 03:55:30;;;;;;;21.52;19.08;;;;;;;25.38;67.08;101210.84;5116444;28;20407;-74
2022/06/04 03:57:57;;;;;;;21.13;19.02;;;;;;;25.37;67.12;101201.03;5115563;28;20044;-74
2022/06/04 04:00:33;;;;;;;22.95;20.63;;;;;;;25.38;67.17;101193.75;5114640;28;20051;-74
2022/06/04 04:03:14;;;;;;;21.33;19.30;;;;;;;25.38;67.10;101196.44;5079186;28;20037;-74
2022/06/04 04:05:46;;;;;;;23.60;21.30;;;;;;;25.38;67.10;101207.28;5013041;28;20050;-75
2022/06/04 04:08:15;;;;;;;22.17;19.85;;;;;;;25.37;67.15;101222.72;5012390;28;20401;-74
2022/06/04 04:10:44;;;;;;;21.98;19.70;;;;;;;25.37;67.27;101227.28;5010969;28;20065;-75
2022/06/04 04:13:12;;;;;;;20.38;18.27;;;;;;;25.37;66.99;101225.41;5012694;28;20045;-74
2022/06/04 04:15:40;;;;;;;24.10;21.75;;;;;;;25.37;66.88;101221.84;5012061;28;20050;-74
2022/06/04 04:18:08;;;;;;;25.00;21.50;;;;;;;25.37;66.71;101216.44;5012216;28;20046;-74
2022/06/04 04:20:41;;;;;;;24.88;22.38;;;;;;;25.37;66.71;101211.88;5012364;28;20046;-74
2022/06/04 04:23:09;;;;;;;24.50;22.15;;;;;;;25.37;66.74;101221.84;5012291;28;20050;-74
2022/06/04 04:25:37;;;;;;;24.35;21.88;;;;;;;25.36;66.58;101229.16;5072809;28;20047;-74
2022/06/04 04:28:06;;;;;;;22.17;19.88;;;;;;;25.36;66.60;101239.13;5115363;28;20060;-74
2022/06/04 04:30:35;;;;;;;20.75;18.75;;;;;;;25.37;66.84;101248.97;5115853;28;20048;-74
2022/06/04 04:33:04;;;;;;;21.35;19.08;;;;;;;25.38;66.75;101256.06;5115318;28;20044;-74
2022/06/04 04:35:34;;;;;;;19.88;17.80;;;;;;;25.37;66.63;101248.97;5115341;28;20044;-74
2022/06/04 04:38:02;;;;;;;21.98;19.88;;;;;;;25.37;66.51;101247.09;5097658;28;20044;-74
2022/06/04 04:40:31;;;;;;;19.23;17.27;;;;;;;25.35;66.57;101250.97;5115304;28;20078;-74
2022/06/04 04:42:59;;;;;;;21.77;19.30;;;;;;;25.36;66.56;101247.25;5028529;28;20496;-74
2022/06/04 04:45:28;;;;;;;18.10;16.20;;;;;;;25.36;66.69;101244.53;5012235;28;20048;-74
2022/06/04 04:47:56;;;;;;;20.00;17.98;;;;;;;25.37;66.60;101254.38;5011720;28;20072;-74
2022/06/04 04:50:33;;;;;;;19.77;17.85;;;;;;;25.37;66.52;101254.38;5011615;28;20069;-74
2022/06/04 04:53:10;;;;;;;20.17;18.27;;;;;;;25.35;66.41;101249.09;5012130;28;20057;-74
2022/06/04 04:55:38;;;;;;;20.15;18.05;;;;;;;25.36;66.53;101244.53;5043152;28;20370;-73
2022/06/04 04:58:06;;;;;;;21.17;18.05;;;;;;;25.36;66.49;101231.84;5011438;28;20492;-73
2022/06/04 05:00:34;;;;;;;21.20;19.05;;;;;;;25.36;66.46;101240.00;5011664;28;20066;-73
2022/06/04 05:03:02;;;;;;;18.83;16.80;;;;;;;25.36;66.45;101260.78;5005060;28;20050;-74
2022/06/04 05:05:30;;;;;;;18.67;16.77;;;;;;;25.36;66.40;101271.63;4991709;28;20054;-73
2022/06/04 05:07:57;;;;;;;18.75;16.75;;;;;;;25.36;66.60;101256.25;4992099;28;20051;-74
2022/06/04 05:10:25;;;;;;;21.52;19.30;;;;;;;25.36;66.41;101264.38;4991624;28;20050;-73
2022/06/04 05:12:53;;;;;;;19.30;17.52;;;;;;;25.37;66.31;101254.38;4991962;28;20051;-73
2022/06/04 05:15:22;;;;;;;19.25;17.40;;;;;;;25.37;66.42;101248.97;4991016;28;20405;-74
2022/06/04 05:17:49;;;;;;;19.30;17.35;;;;;;;25.36;66.44;101242.69;4991680;28;20397;-74
2022/06/04 05:20:17;;;;;;;18.17;16.48;;;;;;;25.36;66.37;101250.84;4991526;28;20051;-74
2022/06/04 05:22:44;;;;;;;16.92;15.32;;;;;;;25.37;66.44;101248.97;4991675;28;20513;-74
2022/06/04 05:25:13;;;;;;;17.88;16.15;;;;;;;25.37;66.48;101262.50;5023339;28;20053;-74
2022/06/04 05:27:40;;;;;;;19.33;17.20;;;;;;;25.36;66.38;101261.66;4991695;28;20058;-74
2022/06/04 05:30:08;;;;;;;17.17;15.50;;;;;;;25.37;66.44;101276.91;5022824;28;20049;-74
2022/06/04 05:32:35;;;;;;;18.50;16.63;;;;;;;25.37;66.29;101287.75;4991864;28;20069;-74
2022/06/04 05:35:03;;;;;;;20.33;18.33;;;;;;;25.38;66.21;101299.44;4991613;28;20046;-74
2022/06/04 05:37:31;;;;;;;19.90;17.80;;;;;;;25.37;66.26;101303.16;4989980;28;20098;-74
2022/06/04 05:40:06;;;;;;;18.92;16.95;;;;;;;25.37;66.23;101293.19;4991504;28;20505;-74
2022/06/04 05:42:34;;;;;;;17.90;16.00;;;;;;;25.37;66.29;101305.88;4995598;28;20050;-74
2022/06/04 05:45:01;;;;;;;18.02;16.42;;;;;;;25.37;66.31;101309.44;5010031;28;20041;-74
2022/06/04 05:47:29;;;;;;;18.13;16.25;;;;;;;25.37;66.18;101301.31;5011498;28;20057;-73
2022/06/04 05:49:56;;;;;;;18.65;16.15;;;;;;;25.37;66.26;101304.03;5010946;28;20496;-74
2022/06/04 05:52:23;;;;;;;17.55;15.93;;;;;;;25.37;66.31;101308.59;5009469;28;20485;-73
2022/06/04 05:54:51;;;;;;;18.30;16.55;;;;;;;25.36;65.95;101299.63;5008661;28;20050;-73
2022/06/04 05:57:18;;;;;;;19.63;17.73;;;;;;;25.37;66.15;101303.16;5011015;28;20049;-73
2022/06/04 05:59:45;;;;;;;17.65;15.98;;;;;;;25.38;66.19;101299.44;5010972;28;20050;-73
2022/06/04 06:02:13;;;;;;;18.20;16.40;;;;;;;25.38;66.21;101313.00;5008964;28;20046;-74
2022/06/04 06:04:40;;;;;;;17.73;16.13;;;;;;;25.37;66.22;101314.00;5011159;28;20057;-74
2022/06/04 06:07:07;;;;;;;18.45;16.55;;;;;;;25.38;66.00;101321.13;5010607;28;20057;-73
2022/06/04 06:09:35;;;;;;;18.02;16.30;;;;;;;25.37;66.08;101328.41;5010999;28;20042;-73
2022/06/04 06:12:02;;;;;;;16.67;15.05;;;;;;;25.38;66.14;101323.84;5010504;28;20042;-73
2022/06/04 06:14:30;;;;;;;17.50;14.88;;;;;;;25.38;65.99;101326.53;5009305;28;20049;-73
2022/06/04 06:16:59;;;;;;;15.57;14.18;;;;;;;25.38;66.13;101329.25;5010873;28;20053;-73
2022/06/04 06:19:29;;;;;;;18.38;16.58;;;;;;;25.38;66.10;101330.09;5010135;28;20139;-74
2022/06/04 06:21:56;;;;;;;17.13;15.38;;;;;;;25.38;66.15;101321.13;5010321;28;20053;-74
2022/06/04 06:24:23;;;;;;;16.67;15.05;;;;;;;25.37;66.10;101317.56;5009828;28;20042;-73
2022/06/04 06:26:54;;;;;;;17.48;15.85;;;;;;;25.38;66.05;101318.41;5110769;28;20051;-73
2022/06/04 06:29:24;;;;;;;16.77;15.25;;;;;;;25.38;66.03;101321.97;5113350;28;20054;-74
2022/06/04 06:31:51;;;;;;;17.50;15.90;;;;;;;25.39;65.98;101322.81;5113573;28;20043;-74
2022/06/04 06:34:20;;;;;;;17.65;15.98;;;;;;;25.38;65.94;101330.09;5113139;28;20506;-74
2022/06/04 06:36:47;;;;;;;17.45;15.80;;;;;;;25.37;65.94;101331.13;5113481;28;20043;-74
2022/06/04 06:39:15;;;;;;;17.23;15.52;;;;;;;25.38;66.09;101343.66;5113344;28;20047;-74
2022/06/04 06:41:43;;;;;;;16.80;15.25;;;;;;;25.39;66.01;101344.50;5112781;28;20060;-74
2022/06/04 06:44:11;;;;;;;16.85;15.32;;;;;;;25.38;66.16;101327.41;5060843;28;20050;-74
2022/06/04 06:46:43;;;;;;;16.55;15.05;;;;;;;25.39;66.15;101333.66;5009513;28;20524;-74
2022/06/04 06:49:12;;;;;;;17.30;15.55;;;;;;;25.39;66.37;101323.66;5010404;28;20090;-74
2022/06/04 06:51:45;;;;;;;21.98;19.70;;;;;;;25.38;66.62;101330.09;5008381;28;20401;-73
2022/06/04 06:54:15;;;;;;;23.80;21.27;;;;;;;25.38;66.63;101340.94;5009739;28;20046;-73
2022/06/04 06:56:46;;;;;;;24.63;22.13;;;;;;;25.37;66.67;101341.13;5010545;28;20061;-73
2022/06/04 06:59:14;;;;;;;28.08;25.08;;;;;;;25.36;66.22;101331.25;5007834;28;20046;-73
2022/06/04 07:01:42;;;;;;;40.22;35.88;;;;;;;25.33;65.72;101340.59;5009982;28;20050;-74
2022/06/04 07:04:10;;;;;;;45.30;40.25;;;;;;;25.27;65.60;101334.94;4994877;28;20057;-73
2022/06/04 07:06:40;;;;;;;44.92;39.67;;;;;;;25.23;65.66;101347.09;5008525;28;20413;-74
2022/06/04 07:09:18;;;;;;;47.15;42.10;;;;;;;25.19;65.81;101343.00;4993749;28;20050;-73
2022/06/04 07:11:46;;;;;;;49.60;42.42;;;;;;;25.15;65.74;101353.31;4994075;28;20406;-73
2022/06/04 07:14:15;;;;;;;50.60;44.20;;;;;;;25.11;66.13;101349.22;4993043;28;20042;-72
2022/06/04 07:16:43;;;;;;;52.20;45.80;;;;;;;25.09;66.22;101353.94;4993954;28;20050;-73
2022/06/04 07:19:12;;;;;;;52.38;44.95;;;;;;;25.05;66.53;101339.84;4994138;28;20058;-73
2022/06/04 07:21:40;;;;;;;51.78;44.72;;;;;;;25.03;66.67;101347.25;4993876;28;20474;-73
2022/06/04 07:24:09;;;;;;;46.58;41.67;;;;;;;25.04;66.64;101348.13;4992756;28;20058;-73
2022/06/04 07:26:37;;;;;;;52.03;43.28;;;;;;;25.03;66.69;101360.78;4995475;28;20409;-74
2022/06/04 07:29:05;;;;;;;46.80;41.17;;;;;;;25.02;66.67;101350.97;4993221;28;20050;-73
2022/06/04 07:31:32;;;;;;;48.20;40.13;;;;;;;25.02;66.62;101348.28;4995449;28;20050;-73
2022/06/04 07:34:00;;;;;;;44.90;37.95;;;;;;;25.01;66.84;101337.59;4994567;28;20061;-73
2022/06/04 07:36:34;;;;;;;43.20;36.60;;;;;;;25.04;66.87;101330.00;4994660;28;20058;-72
2022/06/04 07:39:04;;;;;;;40.47;34.90;;;;;;;25.06;66.76;101332.56;4994619;28;20046;-72
2022/06/04 07:41:35;;;;;;;36.67;32.60;;;;;;;25.07;66.54;101324.25;4993750;28;20050;-73
2022/06/04 07:44:04;;;;;;;37.17;32.25;;;;;;;25.08;66.67;101325.97;4993757;28;20369;-73
2022/06/04 07:46:32;;;;;;;37.40;32.30;;;;;;;25.10;66.84;101329.41;5011947;28;20042;-72
2022/06/04 07:49:01;;;;;;;35.10;31.30;;;;;;;25.12;66.50;101324.69;5013815;28;20111;-73
2022/06/04 07:51:30;;;;;;;36.53;31.83;;;;;;;25.13;66.42;101334.50;5013359;28;20098;-73
2022/06/04 07:53:58;;;;;;;35.55;31.08;;;;;;;25.15;66.25;101342.47;5014522;28;20046;-72
2022/06/04 07:56:25;;;;;;;29.77;26.58;;;;;;;25.17;66.36;101337.75;5012318;28;20077;-73
2022/06/04 07:58:53;;;;;;;33.58;29.48;;;;;;;25.19;66.50;101332.16;5014416;28;20400;-72
2022/06/04 08:01:22;;;;;;;33.22;29.45;;;;;;;25.20;66.18;101339.28;5014222;28;20512;-72
2022/06/04 08:03:51;;;;;;;31.13;27.77;;;;;;;25.21;66.29;101341.00;5012802;28;20417;-73
2022/06/04 08:06:19;;;;;;;30.20;26.05;;;;;;;25.22;66.42;101342.69;5014264;28;20057;-73
2022/06/04 08:08:50;;;;;;;30.95;27.70;;;;;;;25.23;66.30;101347.09;4996012;28;20053;-73
2022/06/04 08:11:31;;;;;;;29.08;25.27;;;;;;;25.24;66.26;101354.22;5012133;28;20045;-72
2022/06/04 08:14:03;;;;;;;29.35;25.17;;;;;;;25.24;66.17;101337.94;5014002;28;20046;-72
2022/06/04 08:16:31;;;;;;;26.73;23.90;;;;;;;25.25;66.19;101336.97;5013132;28;20050;-72
2022/06/04 08:18:59;;;;;;;27.65;24.55;;;;;;;25.26;66.39;101335.94;5013114;28;20050;-73
2022/06/04 08:21:26;;;;;;;26.40;23.67;;;;;;;25.26;66.24;101342.22;5013520;28;20045;-73
2022/06/04 08:23:54;;;;;;;28.25;24.67;;;;;;;25.27;66.27;101340.34;5010657;28;20050;-73
2022/06/04 08:26:21;;;;;;;25.80;23.17;;;;;;;25.28;66.18;101336.63;5046286;28;20055;-73
2022/06/04 08:28:50;;;;;;;25.85;23.05;;;;;;;25.29;66.18;101344.63;5116589;28;20044;-73
2022/06/04 08:31:18;;;;;;;22.85;20.38;;;;;;;25.29;66.21;101349.19;5114774;28;20051;-73
2022/06/04 08:33:46;;;;;;;22.85;20.48;;;;;;;25.30;66.19;101337.34;5097557;28;20052;-72
2022/06/04 08:36:16;;;;;;;22.92;20.52;;;;;;;25.30;66.00;101338.19;5116229;28;20099;-73
2022/06/04 08:38:44;;;;;;;23.70;21.15;;;;;;;25.31;66.30;101337.16;5116952;28;20066;-72
2022/06/04 08:41:32;;;;;;;21.85;19.63;;;;;;;25.31;66.07;101339.88;5116281;28;20047;-72
2022/06/04 08:44:05;;;;;;;21.45;19.23;;;;;;;25.33;66.19;101347.88;5116867;28;20051;-73
2022/06/04 08:46:38;;;;;;;21.38;19.27;;;;;;;25.33;66.34;101350.56;5049885;28;20425;-73
2022/06/04 08:49:20;;;;;;;19.52;17.33;;;;;;;25.33;66.04;101347.88;5012054;28;20046;-73
2022/06/04 08:51:48;;;;;;;21.23;19.05;;;;;;;25.34;66.03;101341.44;5011171;28;20065;-73
2022/06/04 09:00:14;;;;;;;20.05;18.00;;;;;;;25.35;65.95;101324.16;5011850;28;20038;-73
2022/06/04 09:02:57;;;;;;;19.65;17.60;;;;;;;25.36;65.99;101332.13;5008510;28;20379;-73
2022/06/04 09:05:45;;;;;;;17.67;16.05;;;;;;;25.35;66.08;101325.00;4992851;28;20049;-73
2022/06/04 09:08:40;;;;;;;17.77;15.95;;;;;;;25.37;65.94;101335.69;4991368;28;20046;-73
2022/06/04 09:11:18;;;;;;;18.85;16.92;;;;;;;25.37;65.67;101331.13;5008375;28;20054;-73
2022/06/04 09:14:18;;;;;;;16.58;14.88;;;;;;;25.38;65.75;101321.13;4991687;28;20054;-73
2022/06/04 09:16:53;;;;;;;18.50;16.65;;;;;;;25.40;65.75;101319.09;5007850;28;20058;-73
2022/06/04 09:19:26;;;;;;;17.88;16.08;;;;;;;25.38;65.82;101316.56;4991460;28;20111;-73
2022/06/04 09:21:55;;;;;;;18.02;16.23;;;;;;;25.40;65.91;101319.97;4991554;28;20043;-73
2022/06/04 09:24:24;;;;;;;16.77;15.07;;;;;;;25.39;65.66;101320.09;4991986;28;20065;-73
2022/06/04 09:27:10;;;;;;;17.95;16.15;;;;;;;25.39;65.61;101331.78;4991305;28;20050;-73
2022/06/04 09:30:06;;;;;;;17.63;15.95;;;;;;;25.40;65.85;101332.63;4990234;28;20050;-73
2022/06/04 09:32:45;;;;;;;16.35;14.68;;;;;;;25.40;65.86;101321.81;4989640;28;20062;-73
2022/06/04 09:35:37;;;;;;;17.05;15.25;;;;;;;25.40;65.78;101338.06;4990892;28;20054;-73
2022/06/04 09:38:05;;;;;;;16.42;14.82;;;;;;;25.40;65.95;101343.47;4994946;28;20062;-73
2022/06/04 09:40:34;;;;;;;17.33;15.60;;;;;;;25.41;65.85;101331.66;4991365;28;20516;-73
2022/06/04 09:43:15;;;;;;;17.33;15.63;;;;;;;25.40;66.00;101333.53;4989989;28;20390;-72
2022/06/04 09:46:05;;;;;;;16.08;14.68;;;;;;;25.41;65.88;101337.06;5003562;28;20059;-73
2022/06/04 09:48:42;;;;;;;16.25;14.52;;;;;;;25.42;65.78;101337.91;5007316;28;20046;-73
2022/06/04 09:51:18;;;;;;;15.88;14.25;;;;;;;25.42;66.03;101327.94;5100099;28;20407;-72
2022/06/04 09:53:49;;;;;;;15.57;14.13;;;;;;;25.42;65.80;101333.34;5114303;28;20479;-73
2022/06/04 09:56:34;;;;;;;17.13;14.90;;;;;;;25.43;65.84;101326.91;5113799;28;20039;-72
2022/06/04 09:59:17;;;;;;;15.70;14.20;;;;;;;25.43;65.81;101335.03;5112338;28;20054;-72
2022/06/04 10:01:57;;;;;;;17.20;15.60;;;;;;;25.43;65.84;101332.31;5113867;28;20043;-72
2022/06/04 10:04:39;;;;;;;15.50;14.10;;;;;;;25.43;65.58;101324.19;5019986;28;20061;-73
2022/06/04 10:07:13;;;;;;;16.70;15.15;;;;;;;25.44;65.75;101323.19;5010686;28;20061;-73
2022/06/04 10:09:58;;;;;;;15.63;14.15;;;;;;;25.44;65.69;101322.34;5011113;28;20046;-73
2022/06/04 10:15:38;;;;;;;15.50;14.07;;;;;;;25.45;65.63;101324.91;5091093;28;20052;-73
2022/06/04 10:18:23;;;;;;;15.40;14.00;;;;;;;25.45;65.63;101321.34;5074234;28;20546;-73
2022/06/04 10:21:02;;;;;;;15.40;13.95;;;;;;;25.45;65.55;101322.19;5108688;28;20052;-73
2022/06/04 10:23:41;;;;;;;15.48;13.98;;;;;;;25.44;65.53;101309.63;5091388;28;20116;-73
2022/06/04 10:26:30;;;;;;;15.20;13.80;;;;;;;25.44;65.61;101315.06;5090678;28;20060;-73
2022/06/04 10:29:04;;;;;;;15.13;13.82;;;;;;;25.46;65.58;101310.34;5091524;28;20518;-73
2022/06/04 10:32:09;;;;;;;15.52;14.13;;;;;;;25.45;65.59;101316.78;5091036;28;20056;-73
2022/06/04 10:35:01;;;;;;;15.35;13.93;;;;;;;25.46;65.50;101323.03;5030942;28;20057;-73
2022/06/04 10:37:42;;;;;;;16.13;14.52;;;;;;;25.46;65.45;101318.47;5014307;28;20133;-73
2022/06/04 10:40:40;;;;;;;15.50;14.13;;;;;;;25.47;65.32;101314.72;5030677;28;20453;-73
2022/06/04 10:43:39;;;;;;;15.88;14.43;;;;;;;25.45;65.35;101319.47;5030394;28;20064;-73
2022/06/04 10:46:19;;;;;;;15.18;13.70;;;;;;;25.46;65.57;101306.78;5013471;28;20541;-73
2022/06/04 10:49:08;;;;;;;14.15;12.82;;;;;;;25.47;65.47;101303.88;5029266;28;20068;-73
2022/06/04 10:51:50;;;;;;;14.70;13.38;;;;;;;25.47;65.41;101303.88;4979953;28;20158;-73
2022/06/04 10:54:26;;;;;;;16.08;14.45;;;;;;;25.47;65.38;101298.47;4949836;29;20062;-73
2022/06/04 10:57:07;;;;;;;15.63;14.15;;;;;;;25.48;65.40;101304.75;4933806;29;20052;-73
2022/06/04 10:59:43;;;;;;;15.35;13.95;;;;;;;25.48;65.49;101302.91;4950147;29;20055;-73
2022/06/04 11:02:44;;;;;;;15.02;13.68;;;;;;;25.48;65.36;101292.06;4949539;29;20065;-73
2022/06/04 11:05:44;;;;;;;14.63;13.32;;;;;;;25.47;65.45;101298.47;4949515;29;20462;-73
2022/06/04 11:08:23;;;;;;;15.25;13.80;;;;;;;25.49;65.41;101284.78;4947313;28;20489;-73
2022/06/04 11:11:01;;;;;;;15.45;14.07;;;;;;;25.48;65.43;101286.63;4990245;28;20038;-74
2022/06/04 11:13:44;;;;;;;14.25;12.95;;;;;;;25.48;65.49;101286.63;4990624;28;20054;-74
2022/06/04 11:16:25;;;;;;;15.23;13.82;;;;;;;25.49;65.41;101282.91;4990075;28;20057;-73
2022/06/04 11:19:06;;;;;;;14.60;13.30;;;;;;;25.49;65.43;101269.34;4990153;28;20042;-73
2022/06/04 11:21:39;;;;;;;14.73;13.32;;;;;;;25.49;65.37;101268.50;4990252;28;20050;-73
2022/06/04 11:24:16;;;;;;;14.95;13.60;;;;;;;25.50;65.28;101271.03;4990608;28;20047;-73
2022/06/04 11:26:50;;;;;;;14.75;13.45;;;;;;;25.50;65.46;101270.19;4988763;28;20421;-73
2022/06/04 11:29:18;;;;;;;14.35;13.00;;;;;;;25.50;65.37;101276.47;4990165;28;20058;-73
2022/06/04 11:32:06;;;;;;;14.88;13.55;;;;;;;25.49;65.41;101274.78;4990352;28;20043;-73
2022/06/04 11:34:58;;;;;;;14.63;13.23;;;;;;;25.50;65.33;101268.34;5021514;28;20050;-73
2022/06/04 11:37:37;;;;;;;17.30;14.23;;;;;;;25.50;65.31;101268.34;4989895;28;20050;-73
2022/06/04 11:40:17;;;;;;;14.57;13.27;;;;;;;25.51;65.46;101277.31;5004754;28;20050;-73
2022/06/04 11:43:01;;;;;;;15.00;13.68;;;;;;;25.51;65.33;101267.31;4988320;28;20053;-73
2022/06/04 11:45:33;;;;;;;14.30;12.93;;;;;;;25.51;65.46;101255.63;4989906;28;20049;-73
2022/06/04 11:48:09;;;;;;;14.30;12.98;;;;;;;25.51;65.40;101248.34;4989845;28;20065;-73
2022/06/04 11:50:37;;;;;;;15.35;14.05;;;;;;;25.51;65.29;101251.03;5029804;28;20036;-73
2022/06/04 11:53:13;;;;;;;14.52;13.10;;;;;;;25.51;65.23;101240.19;5114554;28;20483;-73